Weather at Robert Lee Airport

Public forecast

Using degrees Fahrenheit for public forecast. Weather courtesy of forecast.io.

Closest aviation weather report (METAR) to Robert Lee Airport

Closest report is San Angelo Regional Mathis Field, 31.5 nm (58.4 km) S. Retrieved 2021/10/21 04:51 UTC (30 minutes ago):

KSJT 210451Z AUTO 00000KT 10SM CLR 17/16 A3013 RMK AO2 SLP188 T01720161

Closest aviation forecast (TAF) to Robert Lee Airport

Closest forecast is San Angelo Regional Mathis Field, 31.5 nm (58.4 km) S. Retrieved 2021-10-21 00:36 UTC (5 hours ago):

TAF KSJT 202333Z 2100/2124 14006KT P6SM SKC FM211300 09005KT P6SM BKN025 FM211800 14006KT P6SM BKN050